Pretty Hana — DSQJ5 — position and weather

sailwx.info

Track history (hours):
 
Tides and Currents Weather Stations Pressure Air Temp Water Temp Dewpoint Dewpoint Depression Visibility Wind Speed Wind Dir Waves Ship Positions

Pretty Hana

Last reported at 2017-Aug-21 08:31 UTC. Time now 2017-Aug-21 08:30 UTC.
Position N 35°30' E 139°52'.

Length 64 m; draft 4.6 m.

Type: Ship (hazmat cat B). MMSI: 441600000.

Date/timePositionNaut miles runAvg speedWind from/ knotsBaromVisibWave heightAir tempDewpointWater temp
2017-Aug-21 08:31N 35°30' E 139°52'11 1.3
2017-Aug-21 00:02N 35°33' E 140°05'  
2017-Aug-18 16:15N 35°33' E 139°60'210.5
2017-Aug-18 16:00N 35°32' E 139°57'510.6
2017-Aug-18 15:30N 35°28' E 139°52'510.8
2017-Aug-18 15:00N 35°25' E 139°47'10 9.5
2017-Aug-18 14:00N 35°15' E 139°47'510.4
2017-Aug-18 13:30N 35°10' E 139°46'5 9.9
2017-Aug-18 13:00N 35°06' E 139°43'5 9.9
2017-Aug-18 12:30N 35°03' E 139°39'510.4
2017-Aug-18 11:59N 34°59' E 139°34'610.9
2017-Aug-18 11:25N 34°56' E 139°27'226 8.9
2017-Aug-17 10:01N 34°11' E 134°59'1 9.5
2017-Aug-17 09:53N 34°12' E 134°59'12 8.2
2017-Aug-17 08:28N 34°24' E 135°00'4 9.1
2017-Aug-17 07:59N 34°28' E 135°01'4 8.6
2017-Aug-17 07:30N 34°32' E 135°02'4 7.4
2017-Aug-17 07:00N 34°36' E 135°03'  
Track history (hours):
 
Tides and Currents Weather Stations Pressure Air Temp Water Temp Dewpoint Dewpoint Depression Visibility Wind Speed Wind Dir Waves Ship Positions

Pretty Hana

Last reported at 2017-Aug-21 08:31 UTC. Time now 2017-Aug-21 08:30 UTC.
Position N 35°30' E 139°52'.

Length 64 m; draft 4.6 m.

Type: Ship (hazmat cat B). MMSI: 441600000.

Date/timePositionNaut miles runAvg speedWind from/ knotsBaromVisibWave heightAir tempDewpointWater temp
2017-Aug-21 08:31N 35°30' E 139°52'11 1.3
2017-Aug-21 00:02N 35°33' E 140°05'  
2017-Aug-18 16:15N 35°33' E 139°60'210.5
2017-Aug-18 16:00N 35°32' E 139°57'510.6
2017-Aug-18 15:30N 35°28' E 139°52'510.8
2017-Aug-18 15:00N 35°25' E 139°47'10 9.5
2017-Aug-18 14:00N 35°15' E 139°47'510.4
2017-Aug-18 13:30N 35°10' E 139°46'5 9.9
2017-Aug-18 13:00N 35°06' E 139°43'5 9.9
2017-Aug-18 12:30N 35°03' E 139°39'510.4
2017-Aug-18 11:59N 34°59' E 139°34'610.9
2017-Aug-18 11:25N 34°56' E 139°27'226 8.9
2017-Aug-17 10:01N 34°11' E 134°59'1 9.5
2017-Aug-17 09:53N 34°12' E 134°59'12 8.2
2017-Aug-17 08:28N 34°24' E 135°00'4 9.1
2017-Aug-17 07:59N 34°28' E 135°01'4 8.6
2017-Aug-17 07:30N 34°32' E 135°02'4 7.4
2017-Aug-17 07:00N 34°36' E 135°03'  

Dump ship's entire track history